HAZ3803 ZGSZ-ZBYN
Flight info
| Callsign | HAZ3803 |
|---|---|
| Flight time | 2h 29m |
| Altitude | 37100 |
| Route | MIPAG W21 TEPID W22 YIN A461 ZHO B208 ANPIG |
| Aircraft | A346/H-SDE2E3FGHIJ3J4J5M1RWXY/LB1D1 |
Departure
| Time | 2026-05-05 12:41 |
|---|---|
| Airport | Shenzhen Bao'an International Airport (ZGSZ) |
Arrival
| Time | 2026-05-05 15:11 |
|---|---|
| Airport | Taiyuan Wusu International Airport (ZBYN) |
| Time | Latitude | Longitude | Altitude | Speed | Heading |
|---|---|---|---|---|---|
| 2026-05-05 12:30 | 22.64376 | 113.80278 | 31 ft | 0 kts | 243° |
| 2026-05-05 12:33 | 22.64378 | 113.80282 | 31 ft | 2 kts | 243° |
| 2026-05-05 12:33 | 22.64385 | 113.80296 | 31 ft | 2 kts | 243° |
| 2026-05-05 12:33 | 22.64391 | 113.80310 | 31 ft | 2 kts | 243° |
| 2026-05-05 12:33 | 22.64397 | 113.80325 | 31 ft | 2 kts | 258° |
| 2026-05-05 12:34 | 22.64399 | 113.80341 | 31 ft | 2 kts | 272° |
| 2026-05-05 12:34 | 22.64397 | 113.80357 | 31 ft | 2 kts | 285° |
| 2026-05-05 12:34 | 22.64392 | 113.80370 | 31 ft | 2 kts | 297° |
| 2026-05-05 12:34 | 22.64383 | 113.80385 | 31 ft | 2 kts | 311° |
| 2026-05-05 12:35 | 22.64372 | 113.80396 | 31 ft | 2 kts | 325° |
| 2026-05-05 12:35 | 22.64363 | 113.80402 | 31 ft | 1 kts | 333° |
| 2026-05-05 12:37 | 22.64370 | 113.80399 | 31 ft | 4 kts | 333° |
| 2026-05-05 12:37 | 22.64421 | 113.80371 | 31 ft | 10 kts | 333° |
| 2026-05-05 12:38 | 22.64494 | 113.80328 | 31 ft | 12 kts | 335° |
| 2026-05-05 12:38 | 22.64561 | 113.80346 | 31 ft | 9 kts | 40° |
| 2026-05-05 12:38 | 22.64622 | 113.80354 | 31 ft | 15 kts | 344° |
| 2026-05-05 12:38 | 22.64735 | 113.80298 | 31 ft | 18 kts | 333° |
| 2026-05-05 12:39 | 22.64855 | 113.80231 | 31 ft | 19 kts | 333° |
| 2026-05-05 12:39 | 22.64982 | 113.80163 | 31 ft | 21 kts | 333° |
| 2026-05-05 12:39 | 22.65107 | 113.80093 | 31 ft | 14 kts | 337° |
| 2026-05-05 12:39 | 22.65184 | 113.80113 | 31 ft | 12 kts | 55° |
| 2026-05-05 12:40 | 22.65231 | 113.80203 | 31 ft | 14 kts | 63° |
| 2026-05-05 12:40 | 22.65267 | 113.80295 | 31 ft | 12 kts | 92° |
| 2026-05-05 12:40 | 22.65201 | 113.80367 | 31 ft | 28 kts | 152° |
| 2026-05-05 12:40 | 22.64783 | 113.80595 | 31 ft | 102 kts | 153° |
| 2026-05-05 12:41 | 22.63960 | 113.81048 | 31 ft | 160 kts | 153° |
| 2026-05-05 12:41 | 22.62855 | 113.81639 | 331 ft | 181 kts | 152° |
| 2026-05-05 12:41 | 22.61729 | 113.82246 | 952 ft | 182 kts | 150° |
| 2026-05-05 12:41 | 22.60610 | 113.82875 | 1591 ft | 184 kts | 149° |
| 2026-05-05 12:42 | 22.59440 | 113.83535 | 2136 ft | 194 kts | 150° |
| 2026-05-05 12:42 | 22.58196 | 113.84232 | 2559 ft | 211 kts | 151° |
| 2026-05-05 12:42 | 22.56830 | 113.84987 | 2967 ft | 230 kts | 152° |
| 2026-05-05 12:42 | 22.55351 | 113.85798 | 3526 ft | 245 kts | 153° |
| 2026-05-05 12:43 | 22.53877 | 113.86601 | 4410 ft | 244 kts | 154° |
| 2026-05-05 12:43 | 22.52363 | 113.87426 | 5236 ft | 247 kts | 154° |
| 2026-05-05 12:43 | 22.51007 | 113.88530 | 5982 ft | 255 kts | 126° |
| 2026-05-05 12:43 | 22.50349 | 113.90308 | 6793 ft | 259 kts | 95° |
| 2026-05-05 12:44 | 22.50605 | 113.92209 | 7511 ft | 264 kts | 65° |
| 2026-05-05 12:44 | 22.51452 | 113.93988 | 8179 ft | 271 kts | 60° |
| 2026-05-05 12:44 | 22.52379 | 113.95820 | 8847 ft | 279 kts | 60° |
| 2026-05-05 12:44 | 22.53275 | 113.97626 | 9533 ft | 282 kts | 61° |
| 2026-05-05 12:45 | 22.54206 | 113.99548 | 10228 ft | 286 kts | 60° |
| 2026-05-05 12:45 | 22.55361 | 114.01302 | 10702 ft | 293 kts | 35° |
| 2026-05-05 12:45 | 22.57198 | 114.02235 | 11112 ft | 297 kts | 5° |
| 2026-05-05 12:45 | 22.59285 | 114.02426 | 11520 ft | 308 kts | 0° |
| 2026-05-05 12:46 | 22.61490 | 114.02588 | 11837 ft | 326 kts | 1° |
| 2026-05-05 12:46 | 22.63793 | 114.02789 | 12135 ft | 343 kts | 1° |
| 2026-05-05 12:46 | 22.66205 | 114.03026 | 12422 ft | 360 kts | 2° |
| 2026-05-05 12:46 | 22.68765 | 114.03142 | 12684 ft | 373 kts | 350° |
| 2026-05-05 12:47 | 22.71255 | 114.02279 | 13039 ft | 379 kts | 328° |
| 2026-05-05 12:47 | 22.73275 | 114.00479 | 13637 ft | 379 kts | 309° |
| 2026-05-05 12:47 | 22.74887 | 113.98212 | 14310 ft | 381 kts | 306° |
| 2026-05-05 12:47 | 22.76503 | 113.95956 | 14917 ft | 385 kts | 306° |
| 2026-05-05 12:48 | 22.78171 | 113.93642 | 15535 ft | 388 kts | 306° |
| 2026-05-05 12:48 | 22.79823 | 113.91356 | 16126 ft | 390 kts | 306° |
| 2026-05-05 12:48 | 22.81517 | 113.89013 | 16714 ft | 393 kts | 306° |
| 2026-05-05 12:48 | 22.83200 | 113.86681 | 17284 ft | 395 kts | 306° |
| 2026-05-05 12:49 | 22.84882 | 113.84346 | 17835 ft | 397 kts | 306° |
| 2026-05-05 12:49 | 22.86589 | 113.81979 | 18383 ft | 400 kts | 306° |
| 2026-05-05 12:49 | 22.88315 | 113.79586 | 18926 ft | 402 kts | 306° |
| 2026-05-05 12:49 | 22.90071 | 113.77261 | 19423 ft | 406 kts | 312° |
| 2026-05-05 12:50 | 22.92366 | 113.75433 | 19873 ft | 416 kts | 329° |
| 2026-05-05 12:50 | 22.95134 | 113.74396 | 20378 ft | 426 kts | 346° |
| 2026-05-05 12:50 | 22.98138 | 113.74210 | 20873 ft | 434 kts | 356° |
| 2026-05-05 12:50 | 23.01174 | 113.74243 | 21383 ft | 437 kts | 356° |
| 2026-05-05 12:51 | 23.04225 | 113.74268 | 21839 ft | 440 kts | 356° |
| 2026-05-05 12:51 | 23.07308 | 113.74287 | 22321 ft | 443 kts | 356° |
| 2026-05-05 12:51 | 23.10404 | 113.74301 | 22807 ft | 446 kts | 356° |
| 2026-05-05 12:51 | 23.13487 | 113.74313 | 23294 ft | 448 kts | 355° |
| 2026-05-05 12:52 | 23.16625 | 113.74323 | 23806 ft | 450 kts | 355° |
| 2026-05-05 12:52 | 23.19776 | 113.74330 | 24337 ft | 451 kts | 355° |
| 2026-05-05 12:52 | 23.22890 | 113.74339 | 24834 ft | 453 kts | 355° |
| 2026-05-05 12:52 | 23.26063 | 113.74178 | 25280 ft | 449 kts | 345° |
| 2026-05-05 12:53 | 23.28993 | 113.73141 | 25740 ft | 442 kts | 329° |
| 2026-05-05 12:53 | 23.31527 | 113.71286 | 26236 ft | 436 kts | 315° |
| 2026-05-05 12:53 | 23.33509 | 113.68821 | 26686 ft | 434 kts | 304° |
| 2026-05-05 12:53 | 23.35266 | 113.66158 | 27136 ft | 437 kts | 304° |
| 2026-05-05 12:54 | 23.38821 | 113.60784 | 28032 ft | 441 kts | 304° |
| 2026-05-05 12:54 | 23.40616 | 113.58070 | 28562 ft | 441 kts | 304° |
| 2026-05-05 12:54 | 23.42388 | 113.55395 | 29241 ft | 436 kts | 304° |
| 2026-05-05 12:55 | 23.44160 | 113.52719 | 29914 ft | 432 kts | 304° |
| 2026-05-05 12:55 | 23.45901 | 113.50091 | 30493 ft | 430 kts | 304° |
| 2026-05-05 12:55 | 23.47727 | 113.47535 | 31033 ft | 429 kts | 309° |
| 2026-05-05 12:55 | 23.49880 | 113.45248 | 31583 ft | 430 kts | 316° |
| 2026-05-05 12:56 | 23.52249 | 113.43318 | 32111 ft | 431 kts | 323° |
| 2026-05-05 12:56 | 23.54886 | 113.41695 | 32615 ft | 433 kts | 330° |
| 2026-05-05 12:56 | 23.57694 | 113.40460 | 33174 ft | 436 kts | 336° |
| 2026-05-05 12:56 | 23.60624 | 113.39634 | 33725 ft | 439 kts | 343° |
| 2026-05-05 12:57 | 23.63666 | 113.39227 | 34254 ft | 443 kts | 350° |
| 2026-05-05 12:57 | 23.66825 | 113.39226 | 34742 ft | 446 kts | 354° |
| 2026-05-05 12:57 | 23.69892 | 113.39342 | 35196 ft | 445 kts | 355° |
| 2026-05-05 12:57 | 23.72934 | 113.39479 | 35600 ft | 445 kts | 355° |
| 2026-05-05 12:58 | 23.76077 | 113.39625 | 35916 ft | 446 kts | 355° |
| 2026-05-05 12:58 | 23.79203 | 113.39771 | 36197 ft | 447 kts | 355° |
| 2026-05-05 12:58 | 23.82289 | 113.39913 | 36443 ft | 448 kts | 355° |
| 2026-05-05 12:58 | 23.85360 | 113.40054 | 36666 ft | 450 kts | 355° |
| 2026-05-05 12:59 | 23.88524 | 113.40198 | 36912 ft | 451 kts | 354° |
| 2026-05-05 12:59 | 23.91669 | 113.40344 | 37083 ft | 452 kts | 355° |
| 2026-05-05 12:59 | 23.94825 | 113.40488 | 37096 ft | 453 kts | 354° |
| 2026-05-05 13:00 | 24.04305 | 113.40920 | 37115 ft | 455 kts | 355° |
| 2026-05-05 13:01 | 24.16956 | 113.41500 | 37102 ft | 453 kts | 354° |
| 2026-05-05 13:01 | 24.23241 | 113.41753 | 37096 ft | 451 kts | 354° |
| 2026-05-05 13:02 | 24.29562 | 113.41950 | 37096 ft | 452 kts | 354° |
| 2026-05-05 13:02 | 24.35858 | 113.42152 | 37107 ft | 450 kts | 354° |
| 2026-05-05 13:03 | 24.42098 | 113.42320 | 37116 ft | 450 kts | 354° |
| 2026-05-05 13:03 | 24.48360 | 113.42505 | 37129 ft | 450 kts | 354° |
| 2026-05-05 13:04 | 24.54652 | 113.42692 | 37136 ft | 449 kts | 354° |
| 2026-05-05 13:04 | 24.60914 | 113.42873 | 37130 ft | 449 kts | 354° |
| 2026-05-05 13:05 | 24.67134 | 113.43051 | 37120 ft | 449 kts | 354° |
| 2026-05-05 13:05 | 24.73412 | 113.43229 | 37110 ft | 449 kts | 354° |
| 2026-05-05 13:06 | 24.79655 | 113.43405 | 37104 ft | 447 kts | 354° |
| 2026-05-05 13:06 | 24.85887 | 113.43582 | 37105 ft | 447 kts | 354° |
| 2026-05-05 13:07 | 24.92115 | 113.43758 | 37110 ft | 448 kts | 354° |
| 2026-05-05 13:07 | 24.98367 | 113.43935 | 37109 ft | 447 kts | 354° |
| 2026-05-05 13:08 | 25.04571 | 113.44110 | 37116 ft | 447 kts | 354° |
| 2026-05-05 13:08 | 25.10785 | 113.44289 | 37119 ft | 447 kts | 354° |
| 2026-05-05 13:09 | 25.17036 | 113.44470 | 37119 ft | 447 kts | 354° |
| 2026-05-05 13:09 | 25.23225 | 113.44648 | 37123 ft | 447 kts | 354° |
| 2026-05-05 13:10 | 25.29450 | 113.44828 | 37125 ft | 446 kts | 354° |
| 2026-05-05 13:10 | 25.35651 | 113.45003 | 37131 ft | 446 kts | 353° |
| 2026-05-05 13:11 | 25.41881 | 113.45181 | 37135 ft | 445 kts | 354° |
| 2026-05-05 13:11 | 25.48054 | 113.45357 | 37140 ft | 445 kts | 354° |
| 2026-05-05 13:12 | 25.54278 | 113.45535 | 37140 ft | 445 kts | 354° |
| 2026-05-05 13:12 | 25.60458 | 113.45710 | 37141 ft | 444 kts | 354° |
| 2026-05-05 13:13 | 25.66659 | 113.45886 | 37146 ft | 445 kts | 354° |
| 2026-05-05 13:13 | 25.72848 | 113.46061 | 37147 ft | 445 kts | 353° |
| 2026-05-05 13:14 | 25.79041 | 113.46233 | 37140 ft | 444 kts | 354° |
| 2026-05-05 13:14 | 25.85255 | 113.46409 | 37136 ft | 444 kts | 354° |
| 2026-05-05 13:15 | 25.91425 | 113.46602 | 37131 ft | 443 kts | 354° |
| 2026-05-05 13:15 | 25.97593 | 113.46803 | 37115 ft | 443 kts | 354° |
| 2026-05-05 13:16 | 26.03744 | 113.46999 | 37104 ft | 444 kts | 354° |
| 2026-05-05 13:16 | 26.09945 | 113.47192 | 37104 ft | 444 kts | 354° |
| 2026-05-05 13:17 | 26.16124 | 113.47388 | 37109 ft | 444 kts | 354° |
| 2026-05-05 13:17 | 26.22320 | 113.47583 | 37102 ft | 444 kts | 354° |
| 2026-05-05 13:18 | 26.28486 | 113.47776 | 37101 ft | 445 kts | 354° |
| 2026-05-05 13:18 | 26.34679 | 113.47970 | 37091 ft | 445 kts | 354° |
| 2026-05-05 13:19 | 26.40905 | 113.48164 | 37084 ft | 445 kts | 354° |
| 2026-05-05 13:19 | 26.47100 | 113.48357 | 37078 ft | 445 kts | 354° |
| 2026-05-05 13:20 | 26.53263 | 113.48550 | 37070 ft | 444 kts | 354° |
| 2026-05-05 13:20 | 26.59444 | 113.48742 | 37064 ft | 445 kts | 354° |
| 2026-05-05 13:21 | 26.65670 | 113.48936 | 37063 ft | 444 kts | 355° |
| 2026-05-05 13:21 | 26.71846 | 113.49129 | 37054 ft | 444 kts | 354° |
| 2026-05-05 13:22 | 26.78067 | 113.49324 | 37053 ft | 445 kts | 354° |
| 2026-05-05 13:22 | 26.84258 | 113.49518 | 37052 ft | 446 kts | 355° |
| 2026-05-05 13:23 | 26.90449 | 113.49711 | 37057 ft | 447 kts | 355° |
| 2026-05-05 13:23 | 26.96670 | 113.49905 | 37056 ft | 446 kts | 355° |
| 2026-05-05 13:24 | 27.02857 | 113.50099 | 37061 ft | 445 kts | 355° |
| 2026-05-05 13:24 | 27.09053 | 113.50292 | 37059 ft | 443 kts | 355° |
| 2026-05-05 13:25 | 27.15277 | 113.50486 | 37045 ft | 444 kts | 355° |
| 2026-05-05 13:25 | 27.21440 | 113.50678 | 37038 ft | 443 kts | 355° |
| 2026-05-05 13:26 | 27.27595 | 113.50864 | 37030 ft | 441 kts | 355° |
| 2026-05-05 13:26 | 27.33618 | 113.51017 | 37035 ft | 441 kts | 355° |
| 2026-05-05 13:27 | 27.39757 | 113.51164 | 37034 ft | 441 kts | 355° |
| 2026-05-05 13:27 | 27.45915 | 113.51313 | 37021 ft | 440 kts | 355° |
| 2026-05-05 13:28 | 27.52042 | 113.51456 | 37038 ft | 439 kts | 355° |
| 2026-05-05 13:28 | 27.58119 | 113.51598 | 37029 ft | 439 kts | 355° |
| 2026-05-05 13:29 | 27.64234 | 113.51759 | 37035 ft | 438 kts | 357° |
| 2026-05-05 13:29 | 27.70339 | 113.52235 | 37034 ft | 439 kts | 358° |
| 2026-05-05 13:30 | 27.76429 | 113.52761 | 37033 ft | 437 kts | 359° |
| 2026-05-05 13:30 | 27.82474 | 113.53281 | 37029 ft | 436 kts | 359° |
| 2026-05-05 13:31 | 27.88521 | 113.53798 | 37043 ft | 436 kts | 359° |
| 2026-05-05 13:31 | 27.94592 | 113.54315 | 37040 ft | 435 kts | 359° |
| 2026-05-05 13:32 | 28.00661 | 113.54832 | 37048 ft | 434 kts | 359° |
| 2026-05-05 13:32 | 28.06694 | 113.55344 | 37045 ft | 434 kts | 359° |
| 2026-05-05 13:33 | 28.12731 | 113.55846 | 37043 ft | 434 kts | 358° |
| 2026-05-05 13:33 | 28.18745 | 113.56267 | 37043 ft | 434 kts | 358° |
| 2026-05-05 13:34 | 28.24820 | 113.56683 | 37039 ft | 432 kts | 358° |
| 2026-05-05 13:34 | 28.30810 | 113.57096 | 37030 ft | 432 kts | 358° |
| 2026-05-05 13:35 | 28.36822 | 113.57507 | 37041 ft | 430 kts | 358° |
| 2026-05-05 13:35 | 28.42785 | 113.57918 | 37050 ft | 430 kts | 358° |
| 2026-05-05 13:36 | 28.48723 | 113.58330 | 37053 ft | 430 kts | 358° |
| 2026-05-05 13:36 | 28.54700 | 113.58736 | 37061 ft | 430 kts | 358° |
| 2026-05-05 13:37 | 28.60690 | 113.59139 | 37049 ft | 430 kts | 358° |
| 2026-05-05 13:37 | 28.66514 | 113.59523 | 37051 ft | 428 kts | 358° |
| 2026-05-05 13:38 | 28.72478 | 113.59919 | 37052 ft | 429 kts | 358° |
| 2026-05-05 13:38 | 28.78447 | 113.60342 | 37053 ft | 428 kts | 359° |
| 2026-05-05 13:39 | 28.84385 | 113.60809 | 37047 ft | 427 kts | 359° |
| 2026-05-05 13:39 | 28.90341 | 113.61276 | 37053 ft | 428 kts | 359° |
| 2026-05-05 13:40 | 28.96242 | 113.61736 | 37031 ft | 427 kts | 359° |
| 2026-05-05 13:40 | 29.02163 | 113.62190 | 37032 ft | 427 kts | 359° |
| 2026-05-05 13:41 | 29.08095 | 113.62646 | 37037 ft | 426 kts | 359° |
| 2026-05-05 13:41 | 29.13994 | 113.63100 | 37036 ft | 426 kts | 359° |
| 2026-05-05 13:42 | 29.19912 | 113.63554 | 37030 ft | 425 kts | 359° |
| 2026-05-05 13:42 | 29.25827 | 113.64014 | 37031 ft | 426 kts | 359° |
| 2026-05-05 13:43 | 29.31761 | 113.64495 | 37024 ft | 425 kts | 359° |
| 2026-05-05 13:43 | 29.37661 | 113.64979 | 37028 ft | 424 kts | 359° |
| 2026-05-05 13:44 | 29.43519 | 113.65453 | 37030 ft | 424 kts | 359° |
| 2026-05-05 13:44 | 29.49422 | 113.65928 | 37036 ft | 424 kts | 359° |
| 2026-05-05 13:45 | 29.55308 | 113.66403 | 37031 ft | 424 kts | 359° |
| 2026-05-05 13:45 | 29.61182 | 113.66877 | 37014 ft | 424 kts | 359° |
| 2026-05-05 13:46 | 29.67088 | 113.67349 | 37008 ft | 422 kts | 359° |
| 2026-05-05 13:46 | 29.72951 | 113.67818 | 36999 ft | 424 kts | 359° |
| 2026-05-05 13:47 | 29.78847 | 113.68296 | 36992 ft | 423 kts | 359° |
| 2026-05-05 13:47 | 29.84695 | 113.69008 | 37003 ft | 425 kts | 4° |
| 2026-05-05 13:48 | 29.90533 | 113.70373 | 36987 ft | 429 kts | 9° |
| 2026-05-05 13:48 | 29.96223 | 113.72358 | 36975 ft | 434 kts | 14° |
| 2026-05-05 13:49 | 30.01842 | 113.74995 | 36961 ft | 436 kts | 17° |
| 2026-05-05 13:49 | 30.07388 | 113.77823 | 36959 ft | 436 kts | 17° |
| 2026-05-05 13:50 | 30.12931 | 113.80655 | 36962 ft | 435 kts | 18° |
| 2026-05-05 13:50 | 30.18446 | 113.83474 | 36957 ft | 435 kts | 17° |
| 2026-05-05 13:51 | 30.23984 | 113.86311 | 36972 ft | 436 kts | 18° |
| 2026-05-05 13:51 | 30.29524 | 113.89159 | 36970 ft | 436 kts | 17° |
| 2026-05-05 13:52 | 30.35091 | 113.92021 | 36970 ft | 435 kts | 18° |
| 2026-05-05 13:52 | 30.40654 | 113.94888 | 36976 ft | 436 kts | 18° |
| 2026-05-05 13:53 | 30.46187 | 113.97740 | 36967 ft | 435 kts | 18° |
| 2026-05-05 13:53 | 30.51707 | 114.00593 | 36972 ft | 435 kts | 18° |
| 2026-05-05 13:54 | 30.57263 | 114.03470 | 36976 ft | 436 kts | 18° |
| 2026-05-05 13:54 | 30.62797 | 114.06362 | 36975 ft | 436 kts | 18° |
| 2026-05-05 13:55 | 30.68318 | 114.09253 | 36979 ft | 435 kts | 18° |
| 2026-05-05 13:55 | 30.73821 | 114.12133 | 36974 ft | 435 kts | 18° |
| 2026-05-05 13:56 | 30.79346 | 114.15031 | 36979 ft | 434 kts | 18° |
| 2026-05-05 13:56 | 30.84832 | 114.17909 | 36979 ft | 434 kts | 18° |
| 2026-05-05 13:57 | 30.90348 | 114.20808 | 36980 ft | 434 kts | 18° |
| 2026-05-05 13:57 | 30.95853 | 114.23702 | 36978 ft | 434 kts | 19° |
| 2026-05-05 13:58 | 31.01279 | 114.26559 | 36979 ft | 434 kts | 18° |
| 2026-05-05 13:58 | 31.06757 | 114.29449 | 36988 ft | 434 kts | 18° |
| 2026-05-05 13:59 | 31.14970 | 114.33776 | 36996 ft | 432 kts | 18° |
| 2026-05-05 14:00 | 31.22307 | 114.37652 | 37005 ft | 433 kts | 19° |
| 2026-05-05 14:00 | 31.28781 | 114.40627 | 37004 ft | 428 kts | 13° |
| 2026-05-05 14:01 | 31.34417 | 114.42469 | 36998 ft | 424 kts | 8° |
| 2026-05-05 14:01 | 31.40221 | 114.43688 | 36985 ft | 420 kts | 4° |
| 2026-05-05 14:02 | 31.46034 | 114.44348 | 36987 ft | 420 kts | 1° |
| 2026-05-05 14:02 | 31.51839 | 114.44901 | 36986 ft | 419 kts | 1° |
| 2026-05-05 14:03 | 31.57675 | 114.45451 | 36979 ft | 418 kts | 1° |
| 2026-05-05 14:03 | 31.63466 | 114.45997 | 36975 ft | 418 kts | 1° |
| 2026-05-05 14:04 | 31.69136 | 114.46530 | 36976 ft | 417 kts | 1° |
| 2026-05-05 14:04 | 31.74969 | 114.47083 | 36976 ft | 417 kts | 1° |
| 2026-05-05 14:05 | 31.80758 | 114.47628 | 36967 ft | 417 kts | 1° |
| 2026-05-05 14:05 | 31.86583 | 114.48174 | 36970 ft | 417 kts | 1° |
| 2026-05-05 14:06 | 31.92329 | 114.48715 | 36903 ft | 418 kts | 1° |
| 2026-05-05 14:06 | 31.98146 | 114.49264 | 36962 ft | 418 kts | 1° |
| 2026-05-05 14:07 | 32.03852 | 114.49805 | 36975 ft | 416 kts | 1° |
| 2026-05-05 14:07 | 32.09669 | 114.50358 | 36966 ft | 416 kts | 1° |
| 2026-05-05 14:08 | 32.15471 | 114.50903 | 36967 ft | 417 kts | 1° |
| 2026-05-05 14:08 | 32.21244 | 114.51449 | 36969 ft | 416 kts | 1° |
| 2026-05-05 14:09 | 32.27024 | 114.51997 | 36970 ft | 415 kts | 1° |
| 2026-05-05 14:09 | 32.32778 | 114.52544 | 36963 ft | 416 kts | 1° |
| 2026-05-05 14:10 | 32.38477 | 114.53090 | 36967 ft | 414 kts | 1° |
| 2026-05-05 14:10 | 32.44212 | 114.53645 | 36959 ft | 415 kts | 1° |
| 2026-05-05 14:11 | 32.49926 | 114.54194 | 37122 ft | 414 kts | 1° |
| 2026-05-05 14:11 | 32.52789 | 114.54472 | 37010 ft | 413 kts | 1° |
| 2026-05-05 14:11 | 32.55644 | 114.54747 | 36974 ft | 412 kts | 1° |
| 2026-05-05 14:12 | 32.61357 | 114.55296 | 36968 ft | 411 kts | 1° |
| 2026-05-05 14:12 | 32.67060 | 114.55846 | 36959 ft | 411 kts | 1° |
| 2026-05-05 14:13 | 32.72739 | 114.56397 | 36959 ft | 411 kts | 0° |
| 2026-05-05 14:13 | 32.78460 | 114.56950 | 36952 ft | 411 kts | 1° |
| 2026-05-05 14:14 | 32.84170 | 114.57503 | 36957 ft | 410 kts | 1° |
| 2026-05-05 14:14 | 32.89851 | 114.58055 | 36953 ft | 410 kts | 1° |
| 2026-05-05 14:15 | 32.95522 | 114.58605 | 36962 ft | 410 kts | 1° |
| 2026-05-05 14:15 | 33.01153 | 114.59154 | 36951 ft | 409 kts | 0° |
| 2026-05-05 14:16 | 33.06834 | 114.59705 | 36955 ft | 409 kts | 1° |
| 2026-05-05 14:16 | 33.12499 | 114.60262 | 36965 ft | 409 kts | 0° |
| 2026-05-05 14:17 | 33.18165 | 114.60812 | 36954 ft | 408 kts | 0° |
| 2026-05-05 14:17 | 33.23825 | 114.61365 | 36955 ft | 408 kts | 1° |
| 2026-05-05 14:18 | 33.29504 | 114.61922 | 36948 ft | 409 kts | 0° |
| 2026-05-05 14:18 | 33.35205 | 114.62479 | 36945 ft | 409 kts | 0° |
| 2026-05-05 14:19 | 33.40865 | 114.63036 | 36948 ft | 409 kts | 0° |
| 2026-05-05 14:19 | 33.46531 | 114.63591 | 36943 ft | 409 kts | 0° |
| 2026-05-05 14:20 | 33.52200 | 114.64148 | 36937 ft | 409 kts | 0° |
| 2026-05-05 14:20 | 33.57870 | 114.64562 | 36937 ft | 407 kts | 355° |
| 2026-05-05 14:21 | 33.63404 | 114.63819 | 37270 ft | 405 kts | 345° |
| 2026-05-05 14:21 | 33.66105 | 114.62968 | 37697 ft | 402 kts | 341° |
| 2026-05-05 14:21 | 33.68742 | 114.61797 | 37921 ft | 401 kts | 336° |
| 2026-05-05 14:22 | 33.73638 | 114.58567 | 37936 ft | 400 kts | 326° |
| 2026-05-05 14:22 | 33.78107 | 114.54463 | 37937 ft | 401 kts | 323° |
| 2026-05-05 14:23 | 33.82514 | 114.50253 | 37938 ft | 402 kts | 323° |
| 2026-05-05 14:23 | 33.86886 | 114.46145 | 37931 ft | 400 kts | 323° |
| 2026-05-05 14:24 | 33.91244 | 114.42055 | 37938 ft | 400 kts | 323° |
| 2026-05-05 14:24 | 33.95627 | 114.37927 | 37934 ft | 399 kts | 323° |
| 2026-05-05 14:25 | 33.99997 | 114.33808 | 37930 ft | 401 kts | 323° |
| 2026-05-05 14:25 | 34.04366 | 114.29676 | 37929 ft | 400 kts | 323° |
| 2026-05-05 14:26 | 34.08727 | 114.25549 | 37925 ft | 399 kts | 323° |
| 2026-05-05 14:26 | 34.13142 | 114.21379 | 37926 ft | 399 kts | 323° |
| 2026-05-05 14:27 | 34.17488 | 114.17272 | 37934 ft | 399 kts | 323° |
| 2026-05-05 14:27 | 34.21836 | 114.13142 | 37924 ft | 398 kts | 323° |
| 2026-05-05 14:28 | 34.26180 | 114.09008 | 37910 ft | 399 kts | 323° |
| 2026-05-05 14:28 | 34.30536 | 114.04854 | 37904 ft | 398 kts | 322° |
| 2026-05-05 14:29 | 34.34848 | 114.00734 | 37901 ft | 398 kts | 323° |
| 2026-05-05 14:29 | 34.39211 | 113.96554 | 37906 ft | 399 kts | 322° |
| 2026-05-05 14:30 | 34.43549 | 113.92400 | 37910 ft | 399 kts | 323° |
| 2026-05-05 14:30 | 34.48106 | 113.88577 | 37913 ft | 399 kts | 328° |
| 2026-05-05 14:31 | 34.52954 | 113.85340 | 37911 ft | 400 kts | 333° |
| 2026-05-05 14:31 | 34.58039 | 113.82716 | 37909 ft | 400 kts | 338° |
| 2026-05-05 14:32 | 34.63377 | 113.80685 | 37904 ft | 401 kts | 341° |
| 2026-05-05 14:32 | 34.68769 | 113.78866 | 37907 ft | 402 kts | 342° |
| 2026-05-05 14:33 | 34.74123 | 113.77078 | 37909 ft | 402 kts | 342° |
| 2026-05-05 14:33 | 34.79544 | 113.75278 | 37907 ft | 402 kts | 342° |
| 2026-05-05 14:34 | 34.84936 | 113.73477 | 37902 ft | 402 kts | 341° |
| 2026-05-05 14:34 | 34.90204 | 113.71336 | 37900 ft | 401 kts | 338° |
| 2026-05-05 14:35 | 34.95477 | 113.69028 | 37899 ft | 401 kts | 338° |
| 2026-05-05 14:35 | 35.00701 | 113.66730 | 37890 ft | 401 kts | 338° |
| 2026-05-05 14:36 | 35.05963 | 113.64408 | 37887 ft | 401 kts | 338° |
| 2026-05-05 14:36 | 35.11209 | 113.62087 | 37892 ft | 400 kts | 338° |
| 2026-05-05 14:37 | 35.16467 | 113.59776 | 37886 ft | 401 kts | 338° |
| 2026-05-05 14:37 | 35.21715 | 113.57455 | 37878 ft | 401 kts | 337° |
| 2026-05-05 14:38 | 35.26984 | 113.55112 | 37876 ft | 401 kts | 337° |
| 2026-05-05 14:38 | 35.32202 | 113.52790 | 37896 ft | 401 kts | 337° |
| 2026-05-05 14:39 | 35.37440 | 113.50450 | 37930 ft | 401 kts | 337° |
| 2026-05-05 14:39 | 35.42672 | 113.48112 | 37961 ft | 401 kts | 337° |
| 2026-05-05 14:40 | 35.47945 | 113.45773 | 37989 ft | 400 kts | 337° |
| 2026-05-05 14:40 | 35.53167 | 113.43462 | 38014 ft | 401 kts | 337° |
| 2026-05-05 14:41 | 35.58414 | 113.41132 | 38020 ft | 401 kts | 337° |
| 2026-05-05 14:41 | 35.63626 | 113.38822 | 38022 ft | 401 kts | 337° |
| 2026-05-05 14:42 | 35.68874 | 113.36490 | 37721 ft | 400 kts | 337° |
| 2026-05-05 14:42 | 35.71474 | 113.35331 | 37405 ft | 397 kts | 337° |
| 2026-05-05 14:42 | 35.74050 | 113.34174 | 37052 ft | 395 kts | 336° |
| 2026-05-05 14:43 | 35.76634 | 113.33000 | 36669 ft | 393 kts | 336° |
| 2026-05-05 14:43 | 35.79190 | 113.31844 | 36130 ft | 395 kts | 336° |
| 2026-05-05 14:43 | 35.81753 | 113.30687 | 35517 ft | 395 kts | 336° |
| 2026-05-05 14:43 | 35.84326 | 113.29533 | 34945 ft | 393 kts | 337° |
| 2026-05-05 14:44 | 35.86892 | 113.28388 | 34398 ft | 395 kts | 337° |
| 2026-05-05 14:44 | 35.89492 | 113.27231 | 33748 ft | 397 kts | 337° |
| 2026-05-05 14:44 | 35.92097 | 113.26071 | 33107 ft | 398 kts | 337° |
| 2026-05-05 14:44 | 35.94701 | 113.24912 | 32440 ft | 401 kts | 337° |
| 2026-05-05 14:45 | 35.97292 | 113.23752 | 31784 ft | 403 kts | 337° |
| 2026-05-05 14:45 | 35.99952 | 113.22561 | 31092 ft | 406 kts | 337° |
| 2026-05-05 14:45 | 36.02571 | 113.21388 | 30351 ft | 410 kts | 337° |
| 2026-05-05 14:45 | 36.05264 | 113.20177 | 29598 ft | 414 kts | 337° |
| 2026-05-05 14:46 | 36.07976 | 113.18961 | 28892 ft | 417 kts | 338° |
| 2026-05-05 14:46 | 36.10708 | 113.17735 | 28099 ft | 423 kts | 337° |
| 2026-05-05 14:46 | 36.13511 | 113.16479 | 27494 ft | 423 kts | 338° |
| 2026-05-05 14:46 | 36.16257 | 113.15252 | 26997 ft | 421 kts | 338° |
| 2026-05-05 14:47 | 36.19020 | 113.14010 | 26463 ft | 420 kts | 337° |
| 2026-05-05 14:47 | 36.21762 | 113.12778 | 25977 ft | 418 kts | 338° |
| 2026-05-05 14:47 | 36.24523 | 113.11665 | 25517 ft | 416 kts | 341° |
| 2026-05-05 14:47 | 36.27277 | 113.10719 | 25069 ft | 414 kts | 342° |
| 2026-05-05 14:48 | 36.30046 | 113.09816 | 24611 ft | 412 kts | 342° |
| 2026-05-05 14:48 | 36.32819 | 113.08920 | 24152 ft | 410 kts | 343° |
| 2026-05-05 14:48 | 36.35558 | 113.08034 | 23725 ft | 407 kts | 342° |
| 2026-05-05 14:48 | 36.38319 | 113.07140 | 23271 ft | 405 kts | 343° |
| 2026-05-05 14:49 | 36.41023 | 113.06261 | 22824 ft | 403 kts | 343° |
| 2026-05-05 14:49 | 36.43720 | 113.05384 | 22408 ft | 401 kts | 343° |
| 2026-05-05 14:49 | 36.46395 | 113.04515 | 21998 ft | 399 kts | 343° |
| 2026-05-05 14:49 | 36.49099 | 113.03635 | 21565 ft | 397 kts | 343° |
| 2026-05-05 14:50 | 36.51766 | 113.02765 | 21148 ft | 395 kts | 343° |
| 2026-05-05 14:50 | 36.54378 | 113.01914 | 20750 ft | 393 kts | 343° |
| 2026-05-05 14:50 | 36.57036 | 113.01047 | 20328 ft | 391 kts | 342° |
| 2026-05-05 14:50 | 36.59644 | 113.00194 | 19921 ft | 389 kts | 342° |
| 2026-05-05 14:51 | 36.62255 | 112.99339 | 19506 ft | 388 kts | 342° |
| 2026-05-05 14:51 | 36.64862 | 112.98486 | 19086 ft | 387 kts | 342° |
| 2026-05-05 14:51 | 36.67469 | 112.97631 | 18674 ft | 385 kts | 342° |
| 2026-05-05 14:51 | 36.70032 | 112.96792 | 18275 ft | 383 kts | 342° |
| 2026-05-05 14:52 | 36.72635 | 112.95937 | 17867 ft | 382 kts | 342° |
| 2026-05-05 14:52 | 36.75168 | 112.95106 | 17473 ft | 380 kts | 342° |
| 2026-05-05 14:52 | 36.77732 | 112.94262 | 17083 ft | 378 kts | 342° |
| 2026-05-05 14:52 | 36.80238 | 112.93436 | 16789 ft | 389 kts | 342° |
| 2026-05-05 14:53 | 36.82855 | 112.92570 | 16544 ft | 395 kts | 343° |
| 2026-05-05 14:53 | 36.85491 | 112.91702 | 16304 ft | 395 kts | 343° |
| 2026-05-05 14:53 | 36.88167 | 112.90822 | 16059 ft | 394 kts | 343° |
| 2026-05-05 14:53 | 36.90765 | 112.89967 | 15823 ft | 393 kts | 343° |
| 2026-05-05 14:54 | 36.93417 | 112.89091 | 15579 ft | 392 kts | 343° |
| 2026-05-05 14:54 | 36.96035 | 112.88226 | 15336 ft | 389 kts | 343° |
| 2026-05-05 14:54 | 36.98652 | 112.87358 | 15092 ft | 388 kts | 343° |
| 2026-05-05 14:54 | 37.01271 | 112.86491 | 14850 ft | 386 kts | 343° |
| 2026-05-05 14:55 | 37.03865 | 112.85632 | 14608 ft | 385 kts | 343° |
| 2026-05-05 14:55 | 37.06444 | 112.84782 | 14368 ft | 383 kts | 343° |
| 2026-05-05 14:55 | 37.08973 | 112.83961 | 14134 ft | 381 kts | 343° |
| 2026-05-05 14:55 | 37.11529 | 112.83124 | 13896 ft | 379 kts | 342° |
| 2026-05-05 14:56 | 37.13885 | 112.81763 | 13637 ft | 374 kts | 325° |
| 2026-05-05 14:56 | 37.15991 | 112.79858 | 13408 ft | 373 kts | 322° |
| 2026-05-05 14:56 | 37.18062 | 112.77913 | 13173 ft | 373 kts | 322° |
| 2026-05-05 14:56 | 37.20138 | 112.75988 | 12937 ft | 372 kts | 323° |
| 2026-05-05 14:57 | 37.22241 | 112.74067 | 12698 ft | 371 kts | 323° |
| 2026-05-05 14:57 | 37.24318 | 112.72193 | 12455 ft | 371 kts | 323° |
| 2026-05-05 14:57 | 37.26418 | 112.70311 | 12205 ft | 370 kts | 323° |
| 2026-05-05 14:57 | 37.28519 | 112.68435 | 11958 ft | 369 kts | 324° |
| 2026-05-05 14:58 | 37.30597 | 112.66582 | 11711 ft | 370 kts | 324° |
| 2026-05-05 14:58 | 37.32707 | 112.64703 | 11462 ft | 368 kts | 323° |
| 2026-05-05 14:58 | 37.34793 | 112.62844 | 11218 ft | 368 kts | 323° |
| 2026-05-05 14:58 | 37.36866 | 112.60996 | 10972 ft | 367 kts | 323° |
| 2026-05-05 14:59 | 37.38949 | 112.59140 | 10706 ft | 363 kts | 323° |
| 2026-05-05 14:59 | 37.40990 | 112.57318 | 10362 ft | 356 kts | 323° |
| 2026-05-05 14:59 | 37.42981 | 112.55540 | 10058 ft | 348 kts | 323° |
| 2026-05-05 14:59 | 37.44922 | 112.53806 | 9857 ft | 337 kts | 323° |
| 2026-05-05 15:00 | 37.46801 | 112.52125 | 9727 ft | 325 kts | 323° |
| 2026-05-05 15:00 | 37.47999 | 112.51052 | 9585 ft | 320 kts | 323° |
| 2026-05-05 15:00 | 37.50364 | 112.48936 | 9344 ft | 307 kts | 323° |
| 2026-05-05 15:00 | 37.52102 | 112.47379 | 9150 ft | 299 kts | 323° |
| 2026-05-05 15:01 | 37.53777 | 112.45905 | 9033 ft | 289 kts | 324° |
| 2026-05-05 15:01 | 37.55445 | 112.44553 | 8911 ft | 284 kts | 327° |
| 2026-05-05 15:01 | 37.57159 | 112.43305 | 8795 ft | 285 kts | 329° |
| 2026-05-05 15:01 | 37.58904 | 112.42114 | 8681 ft | 284 kts | 329° |
| 2026-05-05 15:02 | 37.60637 | 112.40936 | 8572 ft | 285 kts | 329° |
| 2026-05-05 15:02 | 37.62404 | 112.39738 | 8461 ft | 285 kts | 329° |
| 2026-05-05 15:02 | 37.64142 | 112.38563 | 8354 ft | 285 kts | 329° |
| 2026-05-05 15:02 | 37.65884 | 112.37383 | 8240 ft | 285 kts | 329° |
| 2026-05-05 15:03 | 37.67648 | 112.36186 | 8127 ft | 285 kts | 328° |
| 2026-05-05 15:03 | 37.69391 | 112.35002 | 8014 ft | 285 kts | 328° |
| 2026-05-05 15:03 | 37.71152 | 112.33796 | 7972 ft | 285 kts | 327° |
| 2026-05-05 15:03 | 37.72923 | 112.32668 | 7877 ft | 284 kts | 339° |
| 2026-05-05 15:04 | 37.74883 | 112.32507 | 7434 ft | 285 kts | 14° |
| 2026-05-05 15:04 | 37.76625 | 112.33538 | 7227 ft | 273 kts | 29° |
| 2026-05-05 15:04 | 37.78204 | 112.34725 | 7172 ft | 253 kts | 28° |
| 2026-05-05 15:04 | 37.79693 | 112.35775 | 7094 ft | 236 kts | 26° |
| 2026-05-05 15:05 | 37.82503 | 112.37582 | 6816 ft | 221 kts | 24° |
| 2026-05-05 15:05 | 37.83895 | 112.38438 | 6664 ft | 221 kts | 23° |
| 2026-05-05 15:05 | 37.85290 | 112.39289 | 6470 ft | 222 kts | 24° |
| 2026-05-05 15:06 | 37.86608 | 112.40261 | 6184 ft | 223 kts | 45° |
| 2026-05-05 15:06 | 37.87231 | 112.41959 | 5820 ft | 212 kts | 94° |
| 2026-05-05 15:06 | 37.86755 | 112.43549 | 5548 ft | 191 kts | 140° |
| 2026-05-05 15:06 | 37.85707 | 112.44597 | 5462 ft | 191 kts | 148° |
| 2026-05-05 15:07 | 37.84653 | 112.45639 | 5459 ft | 195 kts | 142° |
| 2026-05-05 15:07 | 37.83699 | 112.46876 | 5411 ft | 197 kts | 135° |
| 2026-05-05 15:07 | 37.82841 | 112.48240 | 5160 ft | 198 kts | 131° |
| 2026-05-05 15:07 | 37.82034 | 112.49620 | 4912 ft | 196 kts | 130° |
| 2026-05-05 15:08 | 37.81222 | 112.51012 | 4668 ft | 194 kts | 129° |
| 2026-05-05 15:08 | 37.80438 | 112.52335 | 4433 ft | 193 kts | 129° |
| 2026-05-05 15:08 | 37.79636 | 112.53675 | 4194 ft | 190 kts | 129° |
| 2026-05-05 15:08 | 37.78853 | 112.54982 | 3941 ft | 177 kts | 129° |
| 2026-05-05 15:09 | 37.78138 | 112.56175 | 3711 ft | 165 kts | 129° |
| 2026-05-05 15:09 | 37.77447 | 112.57327 | 3511 ft | 161 kts | 129° |
| 2026-05-05 15:09 | 37.76770 | 112.58428 | 3280 ft | 160 kts | 129° |
| 2026-05-05 15:09 | 37.76094 | 112.59550 | 3051 ft | 159 kts | 128° |
| 2026-05-05 15:10 | 37.75435 | 112.60662 | 2901 ft | 159 kts | 128° |
| 2026-05-05 15:10 | 37.74768 | 112.61783 | 2732 ft | 158 kts | 128° |
| 2026-05-05 15:10 | 37.74111 | 112.62877 | 2609 ft | 151 kts | 127° |
| 2026-05-05 15:10 | 37.73569 | 112.63786 | 2598 ft | 98 kts | 127° |
| 2026-05-05 15:11 | 37.73287 | 112.64262 | 2599 ft | 43 kts | 124° |
| 2026-05-05 15:11 | 37.73236 | 112.64491 | 2599 ft | 21 kts | 100° |
| 2026-05-05 15:11 | 37.73230 | 112.64627 | 2599 ft | 8 kts | 57° |
| 2026-05-05 15:11 | 37.73263 | 112.64625 | 2599 ft | 10 kts | 327° |
| 2026-05-05 15:12 | 37.73351 | 112.64499 | 2599 ft | 21 kts | 306° |
| 2026-05-05 15:12 | 37.73439 | 112.64356 | 2599 ft | 21 kts | 307° |
| 2026-05-05 15:12 | 37.73531 | 112.64201 | 2599 ft | 22 kts | 306° |
| 2026-05-05 15:12 | 37.73627 | 112.64038 | 2599 ft | 23 kts | 306° |
| 2026-05-05 15:13 | 37.73706 | 112.63907 | 2599 ft | 15 kts | 310° |
| 2026-05-05 15:13 | 37.73799 | 112.63894 | 2599 ft | 13 kts | 25° |
| 2026-05-05 15:13 | 37.73867 | 112.63882 | 2599 ft | 10 kts | 322° |
| 2026-05-05 15:13 | 37.73926 | 112.63790 | 2598 ft | 17 kts | 304° |
| 2026-05-05 15:14 | 37.74002 | 112.63659 | 2598 ft | 18 kts | 306° |
| 2026-05-05 15:14 | 37.74081 | 112.63525 | 2598 ft | 19 kts | 306° |
| 2026-05-05 15:14 | 37.74165 | 112.63385 | 2598 ft | 20 kts | 307° |
| 2026-05-05 15:14 | 37.74254 | 112.63239 | 2598 ft | 21 kts | 307° |
| 2026-05-05 15:15 | 37.74345 | 112.63088 | 2598 ft | 21 kts | 306° |
| 2026-05-05 15:15 | 37.74417 | 112.62996 | 2598 ft | 13 kts | 344° |
| 2026-05-05 15:15 | 37.74495 | 112.63029 | 2598 ft | 12 kts | 34° |
| 2026-05-05 15:15 | 37.74583 | 112.63026 | 2598 ft | 14 kts | 330° |
| 2026-05-05 15:16 | 37.74672 | 112.62947 | 2598 ft | 16 kts | 328° |
| 2026-05-05 15:16 | 37.74774 | 112.62883 | 2598 ft | 17 kts | 335° |
| 2026-05-05 15:16 | 37.74882 | 112.62823 | 2598 ft | 14 kts | 336° |
| 2026-05-05 15:16 | 37.74976 | 112.62817 | 2598 ft | 14 kts | 22° |
| 2026-05-05 15:17 | 37.75037 | 112.62887 | 2598 ft | 10 kts | 78° |
| 2026-05-05 15:17 | 37.75006 | 112.62970 | 2598 ft | 11 kts | 128° |
| 2026-05-05 15:17 | 37.74982 | 112.63053 | 2598 ft | 9 kts | 70° |
| 2026-05-05 15:17 | 37.75020 | 112.63078 | 2598 ft | 6 kts | 2° |
| 2026-05-05 15:18 | 37.75069 | 112.63071 | 2599 ft | 4 kts | 352° |
| 2026-05-05 15:18 | 37.75082 | 112.63069 | 2598 ft | 0 kts | 352° |